Time;durP1;ratioP1;P1;durP2;ratioP2;P2;SDS_P1;SDS_P2;PMS_P1;PMS_P2;Temp;Humidity;BMP_temperature;BMP_pressure;BME280_temperature;BME280_humidity;BME280_pressure;Samples;Min_cycle;Max_cycle;Signal;HPM_P1;HPM_P2
2022/11/10 00:00:10;;;;;;;49.40;28.40;;;;;;;;;;6597827;28;20185;-96
2022/11/10 00:03:22;;;;;;;43.27;26.17;;;;;;;;;;6598769;28;20180;-96
2022/11/10 00:06:35;;;;;;;44.73;26.47;;;;;;;;;;6597844;28;20184;-96
2022/11/10 00:09:52;;;;;;;51.20;27.37;;;;;;;;;;6598511;28;20191;-96
2022/11/10 00:13:04;;;;;;;51.73;27.47;;;;;;;;;;6601469;28;20192;-96
2022/11/10 00:19:44;;;;;;;48.90;26.40;;;;;;;;;;6602409;28;20171;-96
2022/11/10 00:22:56;;;;;;;46.60;26.93;;;;;;;;;;6601926;28;20524;-96
2022/11/10 00:26:11;;;;;;;43.47;26.17;;;;;;;;;;6601235;28;20181;-96
2022/11/10 00:29:28;;;;;;;41.67;25.77;;;;;;;;;;6602265;28;20187;-96
2022/11/10 00:32:44;;;;;;;45.30;26.67;;;;;;;;;;6602498;28;20183;-96
2022/11/10 00:35:58;;;;;;;46.10;26.67;;;;;;;;;;6603077;28;20208;-96
2022/11/10 00:39:09;;;;;;;43.67;26.03;;;;;;;;;;6585907;28;20656;-96
2022/11/10 00:42:20;;;;;;;45.90;26.93;;;;;;;;;;6602084;28;20216;-96
2022/11/10 00:45:33;;;;;;;50.33;28.00;;;;;;;;;;6601187;28;20186;-96
2022/11/10 00:48:46;;;;;;;47.97;28.00;;;;;;;;;;6599231;28;20243;-96
2022/11/10 00:51:56;;;;;;;45.20;27.20;;;;;;;;;;6600233;28;20532;-96
2022/11/10 00:55:07;;;;;;;47.93;28.70;;;;;;;;;;6599265;28;20215;-96
2022/11/10 00:58:23;;;;;;;48.80;27.53;;;;;;;;;;6598708;28;20668;-96
2022/11/10 01:01:35;;;;;;;46.77;26.30;;;;;;;;;;6600644;28;20262;-96
2022/11/10 01:04:47;;;;;;;48.17;26.47;;;;;;;;;;6601139;28;20178;-96
2022/11/10 01:08:01;;;;;;;47.50;27.47;;;;;;;;;;6599826;28;20271;-96
2022/11/10 01:11:19;;;;;;;49.67;28.60;;;;;;;;;;6600280;28;20260;-96
2022/11/10 01:14:30;;;;;;;53.07;28.80;;;;;;;;;;6600082;28;20230;-96
2022/11/10 01:17:42;;;;;;;51.30;28.63;;;;;;;;;;6584209;28;20226;-96
2022/11/10 01:20:55;;;;;;;45.83;26.67;;;;;;;;;;6583634;28;20180;-96
2022/11/10 01:24:08;;;;;;;46.80;27.23;;;;;;;;;;6601345;28;20263;-96
2022/11/10 01:27:21;;;;;;;46.30;28.13;;;;;;;;;;6601252;28;20256;-96
2022/11/10 01:30:33;;;;;;;50.33;28.37;;;;;;;;;;6600583;28;20202;-96
2022/11/10 01:33:44;;;;;;;47.70;27.60;;;;;;;;;;6601735;28;20207;-96
2022/11/10 01:37:00;;;;;;;50.33;27.30;;;;;;;;;;6599013;28;20204;-96
2022/11/10 01:40:12;;;;;;;52.53;29.33;;;;;;;;;;6600476;28;20152;-96
2022/11/10 01:43:24;;;;;;;57.47;29.23;;;;;;;;;;6598637;28;20187;-96
2022/11/10 01:46:36;;;;;;;48.30;27.90;;;;;;;;;;6601169;28;20180;-96
2022/11/10 01:49:46;;;;;;;47.63;27.63;;;;;;;;;;6600084;28;20177;-96
2022/11/10 01:53:01;;;;;;;48.70;27.53;;;;;;;;;;6601725;28;20532;-96
2022/11/10 01:56:13;;;;;;;44.67;25.80;;;;;;;;;;6599180;28;20223;-96
2022/11/10 01:59:26;;;;;;;44.73;26.80;;;;;;;;;;6598456;28;20180;-96
2022/11/10 02:02:40;;;;;;;43.20;25.60;;;;;;;;;;6597215;28;20215;-96
2022/11/10 02:05:53;;;;;;;47.00;26.17;;;;;;;;;;6597550;28;20691;-96
2022/11/10 02:09:03;;;;;;;45.43;25.13;;;;;;;;;;6597664;28;20192;-96
2022/11/10 02:12:35;;;;;;;47.80;27.47;;;;;;;;;;6581339;28;20200;-96
2022/11/10 02:15:47;;;;;;;46.33;25.87;;;;;;;;;;6583704;28;20246;-96
2022/11/10 02:18:58;;;;;;;42.37;25.27;;;;;;;;;;6597722;28;20230;-96
2022/11/10 02:22:10;;;;;;;45.53;27.03;;;;;;;;;;6582182;28;20219;-96
2022/11/10 02:25:23;;;;;;;42.40;24.53;;;;;;;;;;6598714;28;20180;-96
2022/11/10 02:28:36;;;;;;;42.90;25.47;;;;;;;;;;6597926;28;20531;-96
2022/11/10 02:31:47;;;;;;;45.27;25.50;;;;;;;;;;6580898;28;20187;-96
2022/11/10 02:34:58;;;;;;;45.20;24.70;;;;;;;;;;6581151;28;20248;-96
2022/11/10 02:38:11;;;;;;;43.67;25.33;;;;;;;;;;6599282;28;20637;-96
2022/11/10 02:41:22;;;;;;;44.60;24.90;;;;;;;;;;6599936;28;20230;-96
2022/11/10 02:44:33;;;;;;;38.53;23.10;;;;;;;;;;6582250;28;20191;-96
2022/11/10 02:47:56;;;;;;;47.70;25.00;;;;;;;;;;6581431;28;20184;-96
2022/11/10 02:51:06;;;;;;;41.10;23.83;;;;;;;;;;6597151;28;20185;-96
2022/11/10 02:54:19;;;;;;;42.13;23.47;;;;;;;;;;6599801;28;20196;-96
2022/11/10 02:57:30;;;;;;;43.90;23.67;;;;;;;;;;6598323;28;20219;-96
2022/11/10 03:00:42;;;;;;;42.53;23.30;;;;;;;;;;6597340;28;20188;-96
2022/11/10 03:03:56;;;;;;;39.13;22.93;;;;;;;;;;6597435;28;20218;-96
2022/11/10 03:07:08;;;;;;;43.73;23.83;;;;;;;;;;6598544;28;20211;-96
2022/11/10 03:10:19;;;;;;;43.23;24.33;;;;;;;;;;6583481;28;20271;-96
2022/11/10 03:13:36;;;;;;;44.30;23.70;;;;;;;;;;6598677;28;20197;-96
2022/11/10 03:16:49;;;;;;;43.87;24.80;;;;;;;;;;6598572;28;20232;-96
2022/11/10 03:20:03;;;;;;;42.90;23.60;;;;;;;;;;6599881;28;20204;-96
2022/11/10 03:23:15;;;;;;;43.43;24.10;;;;;;;;;;6599597;28;20191;-96
2022/11/10 03:26:27;;;;;;;39.73;23.00;;;;;;;;;;6596896;28;20223;-96
2022/11/10 03:29:37;;;;;;;45.27;23.90;;;;;;;;;;6598927;28;20256;-96
2022/11/10 03:32:52;;;;;;;38.23;22.53;;;;;;;;;;6597311;28;20176;-96
2022/11/10 03:36:04;;;;;;;38.30;23.13;;;;;;;;;;6598793;28;20212;-96
2022/11/10 03:39:14;;;;;;;38.87;22.33;;;;;;;;;;6581271;28;20180;-96
2022/11/10 03:42:26;;;;;;;36.23;21.47;;;;;;;;;;6596343;28;20184;-96
2022/11/10 03:45:39;;;;;;;37.73;22.43;;;;;;;;;;6601280;28;20306;-95
2022/11/10 03:48:51;;;;;;;38.30;21.47;;;;;;;;;;6603389;28;20309;-96
2022/11/10 03:52:02;;;;;;;38.33;21.60;;;;;;;;;;6602099;28;20521;-96
2022/11/10 03:55:15;;;;;;;35.47;21.60;;;;;;;;;;6602659;28;20626;-96
2022/11/10 03:58:28;;;;;;;33.70;21.33;;;;;;;;;;6599684;28;20192;-96
2022/11/10 04:01:39;;;;;;;34.23;20.50;;;;;;;;;;6599632;28;20187;-96
2022/11/10 04:18:44;;;;;;;33.03;20.07;;;;;;;;;;6600536;28;20215;-96
2022/11/10 04:21:55;;;;;;;34.10;20.87;;;;;;;;;;6600004;28;20214;-96
2022/11/10 04:25:06;;;;;;;33.23;20.37;;;;;;;;;;6598849;28;20183;-96
2022/11/10 04:28:16;;;;;;;31.90;19.33;;;;;;;;;;6597855;28;20212;-96
2022/11/10 04:31:29;;;;;;;35.53;20.97;;;;;;;;;;6598331;28;20184;-96
2022/11/10 04:34:40;;;;;;;32.47;19.67;;;;;;;;;;6599906;28;20194;-96
2022/11/10 04:37:50;;;;;;;31.73;20.03;;;;;;;;;;6600724;28;20199;-95
2022/11/10 04:41:01;;;;;;;34.50;20.30;;;;;;;;;;6597519;28;20577;-96
2022/11/10 04:44:13;;;;;;;32.27;20.23;;;;;;;;;;6597823;28;20615;-96
2022/11/10 04:47:24;;;;;;;31.60;19.57;;;;;;;;;;6597685;28;20188;-96
2022/11/10 04:50:34;;;;;;;34.10;19.73;;;;;;;;;;6598453;28;20559;-96
2022/11/10 04:53:44;;;;;;;32.57;20.40;;;;;;;;;;6597511;28;20595;-96
2022/11/10 04:56:55;;;;;;;36.37;22.37;;;;;;;;;;6597163;28;20259;-96
2022/11/10 05:00:06;;;;;;;36.50;22.03;;;;;;;;;;6597257;28;20177;-96
2022/11/10 05:03:16;;;;;;;33.80;20.67;;;;;;;;;;6599011;28;20184;-96
2022/11/10 05:06:26;;;;;;;35.60;21.30;;;;;;;;;;6596839;28;20326;-95
2022/11/10 05:09:37;;;;;;;31.17;19.67;;;;;;;;;;6598572;28;20180;-96
2022/11/10 05:12:48;;;;;;;35.77;20.63;;;;;;;;;;6597678;28;20180;-95
2022/11/10 05:15:58;;;;;;;32.27;20.20;;;;;;;;;;6596598;28;20252;-95
2022/11/10 05:19:09;;;;;;;30.67;19.37;;;;;;;;;;6596644;28;20183;-96
2022/11/10 05:22:19;;;;;;;30.37;18.50;;;;;;;;;;6598133;28;20173;-95
2022/11/10 05:25:30;;;;;;;29.20;19.57;;;;;;;;;;6596775;28;20276;-96
2022/11/10 05:28:42;;;;;;;30.13;19.30;;;;;;;;;;6597571;28;20180;-95
2022/11/10 05:31:53;;;;;;;30.97;19.10;;;;;;;;;;6598297;28;20602;-96
2022/11/10 05:35:04;;;;;;;32.90;19.13;;;;;;;;;;6598177;28;20204;-95
2022/11/10 05:38:14;;;;;;;30.73;18.97;;;;;;;;;;6595575;28;20181;-96
2022/11/10 05:41:24;;;;;;;29.57;19.90;;;;;;;;;;6596424;28;20176;-95
2022/11/10 05:44:36;;;;;;;31.83;19.83;;;;;;;;;;6597373;28;20172;-96
2022/11/10 05:47:46;;;;;;;35.10;20.17;;;;;;;;;;6596747;28;20187;-95
2022/11/10 05:50:57;;;;;;;33.87;20.77;;;;;;;;;;6597496;28;20176;-96
2022/11/10 05:54:08;;;;;;;34.93;20.57;;;;;;;;;;6597218;28;20169;-96
2022/11/10 05:57:18;;;;;;;31.50;20.80;;;;;;;;;;6597299;28;20274;-96
2022/11/10 06:00:29;;;;;;;38.23;21.37;;;;;;;;;;6596970;28;20188;-96
2022/11/10 06:03:41;;;;;;;28.07;17.63;;;;;;;;;;6596807;28;20545;-96
2022/11/10 06:06:54;;;;;;;32.47;20.27;;;;;;;;;;6597830;28;20203;-96
2022/11/10 06:10:04;;;;;;;34.83;20.87;;;;;;;;;;6580663;28;20212;-96
2022/11/10 06:13:17;;;;;;;33.07;20.40;;;;;;;;;;6598270;28;20230;-96
2022/11/10 06:16:30;;;;;;;35.03;20.70;;;;;;;;;;6596122;28;20261;-96
2022/11/10 06:19:44;;;;;;;34.17;19.40;;;;;;;;;;6596609;28;20188;-95
2022/11/10 06:22:59;;;;;;;29.43;18.20;;;;;;;;;;6597216;28;20642;-96
2022/11/10 06:26:11;;;;;;;32.33;20.47;;;;;;;;;;6597557;28;20207;-96
2022/11/10 06:29:22;;;;;;;31.40;20.37;;;;;;;;;;6597289;28;20222;-96
2022/11/10 06:32:34;;;;;;;33.20;20.43;;;;;;;;;;6596768;28;20203;-96
2022/11/10 06:35:47;;;;;;;31.97;19.73;;;;;;;;;;6598479;28;20211;-96
2022/11/10 06:38:59;;;;;;;31.97;20.37;;;;;;;;;;6596787;28;20637;-96
2022/11/10 06:42:14;;;;;;;30.90;19.30;;;;;;;;;;6597852;28;20196;-96
2022/11/10 06:45:27;;;;;;;31.67;19.70;;;;;;;;;;6597128;28;20184;-96
2022/11/10 06:48:44;;;;;;;31.57;20.27;;;;;;;;;;6597810;28;20230;-96
2022/11/10 06:51:56;;;;;;;33.63;21.43;;;;;;;;;;6597799;28;20184;-96
2022/11/10 06:55:07;;;;;;;32.93;21.57;;;;;;;;;;6597419;28;20227;-96
2022/11/10 06:58:18;;;;;;;32.47;20.30;;;;;;;;;;6596560;28;20257;-96
2022/11/10 07:01:29;;;;;;;33.83;20.83;;;;;;;;;;6595455;28;20595;-96
2022/11/10 07:04:41;;;;;;;36.83;21.87;;;;;;;;;;6595107;28;20187;-96
2022/11/10 07:07:51;;;;;;;32.57;20.77;;;;;;;;;;6596701;28;20591;-96
2022/11/10 07:11:02;;;;;;;32.13;20.07;;;;;;;;;;6598483;28;20255;-96
2022/11/10 07:14:14;;;;;;;30.13;20.03;;;;;;;;;;6594909;28;20203;-96
2022/11/10 07:17:24;;;;;;;30.13;18.80;;;;;;;;;;6595226;28;20290;-96
2022/11/10 07:20:36;;;;;;;29.33;18.77;;;;;;;;;;6597987;28;20185;-95
2022/11/10 07:23:48;;;;;;;27.53;19.20;;;;;;;;;;6601387;28;20164;-95
2022/11/10 07:26:58;;;;;;;30.73;19.47;;;;;;;;;;6600035;28;20271;-95
2022/11/10 07:30:14;;;;;;;28.47;18.67;;;;;;;;;;6600543;28;20176;-96
2022/11/10 07:33:24;;;;;;;29.77;19.30;;;;;;;;;;6599074;28;20182;-94
2022/11/10 07:36:34;;;;;;;29.80;20.27;;;;;;;;;;6601799;28;20204;-96
2022/11/10 07:39:46;;;;;;;29.37;18.93;;;;;;;;;;6600990;28;20507;-96
2022/11/10 07:42:57;;;;;;;28.00;18.37;;;;;;;;;;6601120;28;20187;-94
2022/11/10 07:46:08;;;;;;;30.57;18.50;;;;;;;;;;6599581;28;20545;-95
2022/11/10 07:49:20;;;;;;;32.47;20.20;;;;;;;;;;6602331;28;20165;-95
2022/11/10 07:52:30;;;;;;;32.60;20.73;;;;;;;;;;6599300;28;20183;-96
2022/11/10 07:55:43;;;;;;;29.67;19.63;;;;;;;;;;6600294;28;20641;-95
2022/11/10 07:58:54;;;;;;;30.17;19.97;;;;;;;;;;6601145;28;20287;-96
2022/11/10 08:02:04;;;;;;;31.63;19.70;;;;;;;;;;6598795;28;20187;-96
2022/11/10 08:05:15;;;;;;;29.97;19.90;;;;;;;;;;6600833;28;20521;-96
2022/11/10 08:08:25;;;;;;;32.17;20.27;;;;;;;;;;6598708;28;20711;-96
2022/11/10 08:11:35;;;;;;;33.00;19.27;;;;;;;;;;6598513;28;20185;-96
2022/11/10 08:14:46;;;;;;;28.47;18.67;;;;;;;;;;6600310;28;20196;-96
2022/11/10 08:18:02;;;;;;;29.63;19.17;;;;;;;;;;6599955;28;20295;-96
2022/11/10 08:21:12;;;;;;;27.53;17.57;;;;;;;;;;6598733;28;20560;-96
2022/11/10 08:24:23;;;;;;;24.80;17.03;;;;;;;;;;6600332;28;20165;-96
2022/11/10 08:27:33;;;;;;;27.70;18.43;;;;;;;;;;6600605;28;20176;-96
2022/11/10 08:30:44;;;;;;;29.37;18.77;;;;;;;;;;6597239;28;20168;-96
2022/11/10 08:33:54;;;;;;;30.17;19.30;;;;;;;;;;6599299;28;20204;-96
2022/11/10 08:37:05;;;;;;;27.73;18.90;;;;;;;;;;6600103;28;20586;-96
2022/11/10 08:40:16;;;;;;;25.43;17.83;;;;;;;;;;6599515;28;20172;-96
2022/11/10 08:43:27;;;;;;;27.83;17.57;;;;;;;;;;6599772;28;20196;-96
2022/11/10 08:46:37;;;;;;;22.87;17.00;;;;;;;;;;6598102;28;20621;-96
2022/11/10 08:49:48;;;;;;;27.03;18.20;;;;;;;;;;6599640;28;20310;-96
2022/11/10 08:53:05;;;;;;;25.77;17.23;;;;;;;;;;6597919;28;20178;-95
2022/11/10 08:56:16;;;;;;;25.23;18.03;;;;;;;;;;6599156;28;20201;-96
2022/11/10 08:59:26;;;;;;;28.83;18.57;;;;;;;;;;6599467;28;20177;-96
2022/11/10 09:02:36;;;;;;;25.13;18.17;;;;;;;;;;6598674;28;20165;-96
2022/11/10 09:05:47;;;;;;;24.63;17.57;;;;;;;;;;6598936;28;20256;-95
2022/11/10 09:08:58;;;;;;;25.03;17.70;;;;;;;;;;6597904;28;20176;-96
2022/11/10 09:12:08;;;;;;;24.17;17.43;;;;;;;;;;6599471;28;20529;-95
2022/11/10 09:15:18;;;;;;;25.60;17.20;;;;;;;;;;6598480;28;20274;-95
2022/11/10 09:18:29;;;;;;;25.30;16.80;;;;;;;;;;6598911;28;20181;-95
2022/11/10 09:21:39;;;;;;;25.97;17.00;;;;;;;;;;6598833;28;20176;-95
2022/11/10 09:24:49;;;;;;;20.40;15.73;;;;;;;;;;6598033;28;20214;-95
2022/11/10 09:28:00;;;;;;;20.13;15.10;;;;;;;;;;6597981;28;20287;-96
2022/11/10 09:31:10;;;;;;;22.83;15.47;;;;;;;;;;6597044;28;20172;-96
2022/11/10 09:34:21;;;;;;;18.90;15.03;;;;;;;;;;6598011;28;20601;-95
2022/11/10 09:37:31;;;;;;;19.27;14.80;;;;;;;;;;6598789;28;20204;-95
2022/11/10 09:40:42;;;;;;;20.57;15.23;;;;;;;;;;6596697;28;20184;-95
2022/11/10 09:44:10;;;;;;;16.20;13.43;;;;;;;;;;6597653;28;20633;-95
2022/11/10 09:47:27;;;;;;;16.60;12.80;;;;;;;;;;6598257;28;20585;-95
2022/11/10 09:50:41;;;;;;;22.43;15.10;;;;;;;;;;6598103;28;20203;-95
2022/11/10 09:53:51;;;;;;;19.57;14.23;;;;;;;;;;6598061;28;20263;-95
2022/11/10 09:57:03;;;;;;;18.57;13.23;;;;;;;;;;6597345;28;20243;-95
2022/11/10 10:00:15;;;;;;;17.87;13.33;;;;;;;;;;6597886;28;20224;-95
2022/11/10 10:03:28;;;;;;;17.97;13.30;;;;;;;;;;6597439;28;20176;-95
2022/11/10 10:06:48;;;;;;;17.30;12.90;;;;;;;;;;6597067;28;20235;-95
2022/11/10 10:10:14;;;;;;;20.33;13.60;;;;;;;;;;6598157;28;20203;-95
2022/11/10 10:13:43;;;;;;;18.07;14.07;;;;;;;;;;6598060;28;20169;-95
2022/11/10 10:17:03;;;;;;;18.00;13.43;;;;;;;;;;6595863;28;20238;-95
2022/11/10 10:20:22;;;;;;;19.93;14.07;;;;;;;;;;6597430;28;20173;-95
2022/11/10 10:23:37;;;;;;;16.50;12.50;;;;;;;;;;6597509;28;20206;-94
2022/11/10 10:26:52;;;;;;;20.03;14.33;;;;;;;;;;6597708;28;20299;-95
2022/11/10 10:30:10;;;;;;;20.23;14.47;;;;;;;;;;6597041;28;20173;-94
2022/11/10 10:33:21;;;;;;;21.07;14.67;;;;;;;;;;6596891;28;20168;-94
2022/11/10 10:36:31;;;;;;;19.67;13.63;;;;;;;;;;6596353;28;20200;-94
2022/11/10 10:39:43;;;;;;;20.10;13.60;;;;;;;;;;6596748;28;20183;-94
2022/11/10 10:42:54;;;;;;;25.97;18.23;;;;;;;;;;6597296;28;20179;-94
2022/11/10 10:46:08;;;;;;;22.60;16.83;;;;;;;;;;6596150;28;20177;-94
2022/11/10 10:49:20;;;;;;;21.00;16.03;;;;;;;;;;6596570;28;20247;-94
2022/11/10 10:52:31;;;;;;;23.73;17.33;;;;;;;;;;6596515;28;20180;-94
2022/11/10 10:55:59;;;;;;;25.43;18.30;;;;;;;;;;6595532;28;20593;-94
2022/11/10 10:59:17;;;;;;;22.60;15.83;;;;;;;;;;6597100;28;20248;-95
2022/11/10 11:02:31;;;;;;;25.60;17.50;;;;;;;;;;6596794;28;20504;-94
2022/11/10 11:05:41;;;;;;;23.83;15.93;;;;;;;;;;6595901;28;20183;-94
2022/11/10 11:08:51;;;;;;;23.63;15.03;;;;;;;;;;6595675;28;20204;-94
2022/11/10 11:12:06;;;;;;;21.97;16.13;;;;;;;;;;6596592;28;20617;-94
2022/11/10 11:15:25;;;;;;;24.07;16.77;;;;;;;;;;6596057;28;20232;-94
2022/11/10 11:18:38;;;;;;;22.80;15.83;;;;;;;;;;6594545;28;20174;-94
2022/11/10 11:21:51;;;;;;;21.23;16.50;;;;;;;;;;6596117;28;20169;-93
2022/11/10 11:25:08;;;;;;;18.17;13.73;;;;;;;;;;6595692;28;20621;-92
2022/11/10 11:28:27;;;;;;;22.83;16.27;;;;;;;;;;6596464;28;20161;-92
2022/11/10 11:31:52;;;;;;;19.23;14.60;;;;;;;;;;6596441;28;20215;-92
2022/11/10 11:35:26;;;;;;;24.70;17.77;;;;;;;;;;6595876;28;20168;-92
2022/11/10 11:38:55;;;;;;;28.90;20.33;;;;;;;;;;6595658;28;20157;-92
2022/11/10 11:42:22;;;;;;;24.97;17.80;;;;;;;;;;6595736;28;20227;-92
2022/11/10 11:45:38;;;;;;;22.27;15.90;;;;;;;;;;6595720;28;20176;-92
2022/11/10 11:48:48;;;;;;;20.07;15.43;;;;;;;;;;6595778;28;20169;-93
2022/11/10 11:52:20;;;;;;;21.00;15.33;;;;;;;;;;6595457;28;20260;-93
2022/11/10 11:55:39;;;;;;;19.40;14.10;;;;;;;;;;6596123;28;20192;-93
2022/11/10 11:58:49;;;;;;;18.73;14.03;;;;;;;;;;6595169;28;20247;-92
2022/11/10 12:02:02;;;;;;;20.63;16.03;;;;;;;;;;6595697;28;20255;-92
2022/11/10 12:05:28;;;;;;;20.43;16.23;;;;;;;;;;6596918;28;20164;-92
2022/11/10 12:08:43;;;;;;;21.13;15.07;;;;;;;;;;6600463;28;20260;-91
2022/11/10 12:12:09;;;;;;;22.70;15.60;;;;;;;;;;6600911;28;20521;-91
2022/11/10 12:19:26;;;;;;;20.67;15.97;;;;;;;;;;6599552;28;20187;-90
2022/11/10 12:22:53;;;;;;;19.37;15.00;;;;;;;;;;6600277;28;20592;-90
2022/11/10 12:26:20;;;;;;;17.13;12.90;;;;;;;;;;6600014;28;20197;-90
2022/11/10 12:29:41;;;;;;;21.00;15.40;;;;;;;;;;6600730;28;20168;-90
2022/11/10 12:33:02;;;;;;;18.57;15.27;;;;;;;;;;6598634;28;20180;-90
2022/11/10 12:36:14;;;;;;;16.60;14.47;;;;;;;;;;6599265;28;20204;-90
2022/11/10 12:39:31;;;;;;;18.07;15.63;;;;;;;;;;6599742;28;20214;-91
2022/11/10 12:42:49;;;;;;;21.40;16.40;;;;;;;;;;6600139;28;20197;-90
2022/11/10 12:46:02;;;;;;;17.73;14.73;;;;;;;;;;6599905;28;20185;-91
2022/11/10 12:49:12;;;;;;;19.30;14.23;;;;;;;;;;6599743;28;20234;-91
2022/11/10 12:52:22;;;;;;;18.43;14.50;;;;;;;;;;6599621;28;20617;-91
2022/11/10 12:55:32;;;;;;;21.60;15.83;;;;;;;;;;6599508;28;20631;-91
2022/11/10 12:58:43;;;;;;;18.97;16.60;;;;;;;;;;6599085;28;20698;-91
2022/11/10 13:02:00;;;;;;;20.03;14.87;;;;;;;;;;6599066;28;20736;-91
2022/11/10 13:05:10;;;;;;;23.63;15.57;;;;;;;;;;6599172;28;20176;-91
2022/11/10 13:08:31;;;;;;;18.93;15.67;;;;;;;;;;6598434;28;20172;-91
2022/11/10 13:12:01;;;;;;;20.53;15.00;;;;;;;;;;6598465;28;20169;-91
2022/11/10 13:15:47;;;;;;;18.50;14.67;;;;;;;;;;6598662;28;20300;-91
2022/11/10 13:18:57;;;;;;;15.53;13.90;;;;;;;;;;6476831;28;20184;-91
2022/11/10 13:22:09;;;;;;;16.00;13.97;;;;;;;;;;6598423;28;20227;-92
2022/11/10 13:25:35;;;;;;;17.70;14.70;;;;;;;;;;6598871;28;20172;-91
2022/11/10 13:28:45;;;;;;;17.17;13.70;;;;;;;;;;6598830;28;20238;-91
2022/11/10 13:31:57;;;;;;;18.40;15.03;;;;;;;;;;6598718;28;20173;-92
2022/11/10 13:35:26;;;;;;;22.33;17.43;;;;;;;;;;6598569;28;20544;-91
2022/11/10 13:38:37;;;;;;;21.63;16.80;;;;;;;;;;6598171;28;20204;-91
2022/11/10 13:41:54;;;;;;;16.10;12.23;;;;;;;;;;6598444;28;20176;-91
2022/11/10 13:45:23;;;;;;;21.23;17.30;;;;;;;;;;6597609;28;20263;-92
2022/11/10 13:48:39;;;;;;;24.70;18.73;;;;;;;;;;6597890;28;20171;-92
2022/11/10 13:52:05;;;;;;;21.07;16.73;;;;;;;;;;6597624;28;20179;-91
2022/11/10 13:55:18;;;;;;;22.23;16.57;;;;;;;;;;6596872;28;20181;-92
2022/11/10 13:58:33;;;;;;;23.17;19.13;;;;;;;;;;6595876;28;20216;-91
2022/11/10 14:01:43;;;;;;;26.13;19.20;;;;;;;;;;6598138;28;20221;-91
2022/11/10 14:04:53;;;;;;;25.23;19.73;;;;;;;;;;6597860;28;20617;-92
2022/11/10 14:08:14;;;;;;;22.77;17.57;;;;;;;;;;6597396;28;20219;-92
2022/11/10 14:11:28;;;;;;;21.13;17.03;;;;;;;;;;6596800;28;20172;-92
2022/11/10 14:14:46;;;;;;;25.67;20.23;;;;;;;;;;6595765;28;20572;-92
2022/11/10 14:17:57;;;;;;;26.37;21.63;;;;;;;;;;6597067;28;20639;-92
2022/11/10 14:21:08;;;;;;;22.93;19.30;;;;;;;;;;6596469;28;20198;-92
2022/11/10 14:24:27;;;;;;;25.33;20.40;;;;;;;;;;6597409;28;20172;-92
2022/11/10 14:27:37;;;;;;;27.80;21.43;;;;;;;;;;6596946;28;20271;-92
2022/11/10 14:30:52;;;;;;;21.60;18.57;;;;;;;;;;6596053;28;20168;-92
2022/11/10 14:34:02;;;;;;;24.77;20.20;;;;;;;;;;6597583;28;20250;-92
2022/11/10 14:37:18;;;;;;;23.53;19.47;;;;;;;;;;6596851;28;20200;-92
2022/11/10 14:40:29;;;;;;;26.07;21.77;;;;;;;;;;6596781;28;20244;-92
2022/11/10 14:43:39;;;;;;;22.27;18.83;;;;;;;;;;6596977;28;20568;-92
2022/11/10 14:46:49;;;;;;;25.30;20.03;;;;;;;;;;6596896;28;20172;-93
2022/11/10 14:50:23;;;;;;;26.33;22.00;;;;;;;;;;6596872;28;20536;-92
2022/11/10 14:53:34;;;;;;;25.43;21.50;;;;;;;;;;6582868;28;20184;-92
2022/11/10 14:59:57;;;;;;;28.53;22.03;;;;;;;;;;6645380;28;20683;-92
2022/11/10 15:03:10;;;;;;;29.30;21.30;;;;;;;;;;6649289;28;20168;-93
2022/11/10 15:06:21;;;;;;;23.27;19.70;;;;;;;;;;6648068;28;20171;-92
2022/11/10 15:09:31;;;;;;;26.50;21.37;;;;;;;;;;6649197;28;20171;-92
2022/11/10 15:12:43;;;;;;;24.97;20.93;;;;;;;;;;6647539;28;20187;-92
2022/11/10 15:16:12;;;;;;;22.33;18.90;;;;;;;;;;6632993;28;20201;-92
2022/11/10 15:19:35;;;;;;;22.13;19.47;;;;;;;;;;6621277;28;20171;-92
2022/11/10 15:22:48;;;;;;;23.30;18.23;;;;;;;;;;6622641;28;20156;-92
2022/11/10 15:25:58;;;;;;;22.03;17.57;;;;;;;;;;6620889;28;20624;-93
2022/11/10 15:29:18;;;;;;;20.10;16.53;;;;;;;;;;6622105;28;20168;-93
2022/11/10 15:32:40;;;;;;;25.80;20.27;;;;;;;;;;6622117;28;20258;-92
2022/11/10 15:35:50;;;;;;;21.17;17.67;;;;;;;;;;6622768;28;20218;-92
2022/11/10 15:39:22;;;;;;;22.50;18.20;;;;;;;;;;6621665;28;20210;-92
2022/11/10 15:42:32;;;;;;;32.30;23.33;;;;;;;;;;6627938;28;20152;-92
2022/11/10 15:45:43;;;;;;;26.27;21.37;;;;;;;;;;6627453;28;20179;-93
2022/11/10 15:48:53;;;;;;;23.93;21.10;;;;;;;;;;6627142;28;20504;-92
2022/11/10 15:52:14;;;;;;;23.47;19.40;;;;;;;;;;6626888;28;20168;-92
2022/11/10 15:55:24;;;;;;;26.17;18.23;;;;;;;;;;6627550;28;20160;-93
2022/11/10 15:58:35;;;;;;;25.93;19.60;;;;;;;;;;6625835;28;20250;-92
2022/11/10 16:01:45;;;;;;;22.37;19.17;;;;;;;;;;6626005;28;20621;-92
2022/11/10 16:04:55;;;;;;;23.23;18.60;;;;;;;;;;6624453;28;20179;-93
2022/11/10 16:08:14;;;;;;;22.43;18.03;;;;;;;;;;6625913;28;20176;-93
2022/11/10 16:11:25;;;;;;;19.97;16.83;;;;;;;;;;6623526;28;20270;-92
2022/11/10 16:14:36;;;;;;;21.23;17.90;;;;;;;;;;6624372;28;20187;-92
2022/11/10 16:17:46;;;;;;;24.03;19.03;;;;;;;;;;6624933;28;20749;-93
2022/11/10 16:20:56;;;;;;;27.30;20.30;;;;;;;;;;6624113;28;20176;-93
2022/11/10 16:24:07;;;;;;;22.93;19.30;;;;;;;;;;6624982;28;20203;-93
2022/11/10 16:27:17;;;;;;;26.67;20.47;;;;;;;;;;6625593;28;20738;-93
2022/11/10 16:30:27;;;;;;;25.67;21.53;;;;;;;;;;6625632;28;20226;-93
2022/11/10 16:33:38;;;;;;;34.43;24.23;;;;;;;;;;6626338;28;20164;-93
2022/11/10 16:36:49;;;;;;;32.83;25.37;;;;;;;;;;6624069;28;20208;-93
2022/11/10 16:39:59;;;;;;;37.13;27.10;;;;;;;;;;6624816;28;20660;-93
2022/11/10 16:43:15;;;;;;;35.30;27.37;;;;;;;;;;6625703;28;20175;-93
2022/11/10 16:46:26;;;;;;;35.57;27.10;;;;;;;;;;6625603;28;20254;-92
2022/11/10 16:49:43;;;;;;;37.27;27.53;;;;;;;;;;6625318;28;20202;-93
2022/11/10 16:52:54;;;;;;;38.90;26.90;;;;;;;;;;6623140;28;20172;-93
2022/11/10 16:56:04;;;;;;;39.47;26.77;;;;;;;;;;6625065;28;20281;-93
2022/11/10 16:59:15;;;;;;;36.00;25.87;;;;;;;;;;6623827;28;20227;-93
2022/11/10 17:02:29;;;;;;;36.47;26.27;;;;;;;;;;6609219;28;20703;-94
2022/11/10 17:05:39;;;;;;;32.47;24.50;;;;;;;;;;6598490;28;20231;-93
2022/11/10 17:08:50;;;;;;;30.33;24.17;;;;;;;;;;6601716;28;22220;-93
2022/11/10 17:12:01;;;;;;;34.40;24.73;;;;;;;;;;6624321;28;20175;-93
2022/11/10 17:15:12;;;;;;;34.20;25.30;;;;;;;;;;6622466;28;20183;-94
2022/11/10 17:18:23;;;;;;;36.07;25.33;;;;;;;;;;6623178;28;20290;-94
2022/11/10 17:21:35;;;;;;;39.97;25.07;;;;;;;;;;6623461;28;20176;-93
2022/11/10 17:24:48;;;;;;;35.93;26.07;;;;;;;;;;6624179;28;20511;-94
2022/11/10 17:27:58;;;;;;;36.60;27.03;;;;;;;;;;6622718;28;20631;-94
2022/11/10 17:31:11;;;;;;;40.07;26.87;;;;;;;;;;6621520;28;20271;-94
2022/11/10 17:34:21;;;;;;;35.90;25.57;;;;;;;;;;6622382;28;20183;-94
2022/11/10 17:37:31;;;;;;;44.57;29.30;;;;;;;;;;6622234;28;20735;-94
2022/11/10 17:40:44;;;;;;;44.23;29.37;;;;;;;;;;6621551;28;20245;-94
2022/11/10 17:43:55;;;;;;;44.27;30.43;;;;;;;;;;6622036;28;20558;-94
2022/11/10 17:47:06;;;;;;;43.60;29.47;;;;;;;;;;6623335;28;20249;-94
2022/11/10 17:50:17;;;;;;;43.87;29.40;;;;;;;;;;6621959;28;20271;-94
2022/11/10 17:53:27;;;;;;;47.63;31.13;;;;;;;;;;6622312;28;20187;-94
2022/11/10 17:56:39;;;;;;;45.17;29.43;;;;;;;;;;6622591;28;20196;-94
2022/11/10 17:59:49;;;;;;;38.83;28.40;;;;;;;;;;6622324;28;20577;-94
2022/11/10 18:03:01;;;;;;;38.63;26.97;;;;;;;;;;6622388;28;20183;-94
2022/11/10 18:06:12;;;;;;;37.40;26.47;;;;;;;;;;6622853;28;20620;-93
2022/11/10 18:09:23;;;;;;;39.87;27.50;;;;;;;;;;6622256;28;20175;-94
2022/11/10 18:12:33;;;;;;;38.77;26.70;;;;;;;;;;6622910;28;20218;-94
2022/11/10 18:15:44;;;;;;;40.60;27.90;;;;;;;;;;6622416;28;20207;-93
2022/11/10 18:18:55;;;;;;;38.70;28.43;;;;;;;;;;6621474;28;20226;-94
2022/11/10 18:22:06;;;;;;;47.43;30.57;;;;;;;;;;6623673;28;20167;-95
2022/11/10 18:25:16;;;;;;;44.90;30.27;;;;;;;;;;6621949;28;20176;-94
2022/11/10 18:28:27;;;;;;;42.37;29.73;;;;;;;;;;6623168;28;20322;-94
2022/11/10 18:31:37;;;;;;;44.20;31.00;;;;;;;;;;6621468;28;20543;-94
2022/11/10 18:34:47;;;;;;;42.37;28.60;;;;;;;;;;6621381;28;20175;-95
2022/11/10 18:37:58;;;;;;;41.40;29.33;;;;;;;;;;6604516;28;20248;-94
2022/11/10 18:44:37;;;;;;;89.70;51.43;;;;;;;;;;6622801;28;20259;-94
2022/11/10 18:47:48;;;;;;;72.63;48.83;;;;;;;;;;6621084;28;20183;-94
2022/11/10 18:51:03;;;;;;;71.97;48.27;;;;;;;;;;6621211;28;20187;-94
2022/11/10 18:54:13;;;;;;;89.63;53.87;;;;;;;;;;6620643;28;20176;-95
2022/11/10 18:57:25;;;;;;;84.63;49.87;;;;;;;;;;6621613;28;20277;-95
2022/11/10 19:00:36;;;;;;;79.93;48.07;;;;;;;;;;6621515;28;20183;-95
2022/11/10 19:03:46;;;;;;;70.70;43.20;;;;;;;;;;6622389;28;20168;-95
2022/11/10 19:06:59;;;;;;;72.37;42.97;;;;;;;;;;6621584;28;20187;-94
2022/11/10 19:10:10;;;;;;;79.20;44.20;;;;;;;;;;6622005;28;20545;-95